createdAt,value
2022-09-06T00:02:05.421Z,98028.91
2022-09-06T00:04:48.141Z,98041.06
2022-09-06T00:07:37.413Z,98038.78
2022-09-06T00:10:21.129Z,98039.97
2022-09-06T00:13:12.450Z,98048.53
2022-09-06T00:15:55.074Z,98044.09
2022-09-06T00:18:50.167Z,98059.94
2022-09-06T00:21:39.458Z,98048.97
2022-09-06T00:24:22.121Z,98061.91
2022-09-06T00:27:11.422Z,98061.31
2022-09-06T00:29:54.048Z,98065.66
2022-09-06T00:32:36.296Z,98074.31
2022-09-06T00:35:25.087Z,98073.16
2022-09-06T00:38:08.713Z,98075.56
2022-09-06T00:40:58.209Z,98077.06
2022-09-06T00:43:47.414Z,98079.84
2022-09-06T00:46:36.111Z,98083.34
2022-09-06T00:49:26.457Z,98085.56
2022-09-06T00:52:21.030Z,98087.78
2022-09-06T00:55:10.442Z,98093.66
2022-09-06T00:57:54.051Z,98094.84
2022-09-06T01:00:36.402Z,98096.81
2022-09-06T01:03:27.099Z,98097.59
2022-09-06T01:06:42.472Z,98089.50
2022-09-06T01:10:01.146Z,98104.22
2022-09-06T01:13:35.042Z,98099.13
2022-09-06T01:16:42.128Z,98099.56
2022-09-06T01:20:16.454Z,98105.53
2022-09-06T01:23:20.895Z,98109.19
2022-09-06T01:26:52.471Z,98105.97
2022-09-06T01:29:59.025Z,98120.16
2022-09-06T01:32:48.043Z,98117.41
2022-09-06T01:35:57.126Z,98129.75
2022-09-06T01:38:46.204Z,98125.78
2022-09-06T01:41:28.522Z,98132.06
2022-09-06T01:44:17.216Z,98135.72
2022-09-06T01:47:13.495Z,98138.94
2022-09-06T01:50:33.166Z,98143.72
2022-09-06T01:53:44.530Z,98146.75
2022-09-06T01:57:10.125Z,98147.13
2022-09-06T02:00:13.595Z,98148.53
2022-09-06T02:03:24.316Z,98157.41
2022-09-06T02:06:35.123Z,98152.91
2022-09-06T02:09:31.412Z,98160.16
2022-09-06T02:12:23.153Z,98157.00
2022-09-06T02:15:20.851Z,98157.72
2022-09-06T02:18:27.209Z,98162.75
2022-09-06T02:21:16.376Z,98164.66
2022-09-06T02:24:08.222Z,98169.00
2022-09-06T02:26:51.573Z,98170.03
2022-09-06T02:29:40.230Z,98178.34
2022-09-06T02:32:25.708Z,98173.31
2022-09-06T02:35:24.761Z,98178.44
2022-09-06T02:38:14.220Z,98178.28
2022-09-06T02:41:01.015Z,98180.81
2022-09-06T02:43:52.148Z,98191.97
2022-09-06T02:46:41.201Z,98186.53
2022-09-06T02:49:32.149Z,98192.59
2022-09-06T02:52:15.619Z,98194.63
2022-09-06T02:55:05.146Z,98208.34
2022-09-06T02:57:48.311Z,98199.47
2022-09-06T03:00:39.209Z,98201.13
2022-09-06T03:03:30.233Z,98204.81
2022-09-06T03:06:22.176Z,98199.91
2022-09-06T03:09:14.395Z,98204.50
2022-09-06T03:11:58.846Z,98199.94
2022-09-06T03:14:53.025Z,98206.94
2022-09-06T03:17:51.842Z,98206.84
2022-09-06T03:20:49.187Z,98211.75
2022-09-06T03:23:41.867Z,98221.06
2022-09-06T03:26:27.222Z,98224.56
2022-09-06T03:29:23.114Z,98219.56
2022-09-06T03:32:12.521Z,98227.09
2022-09-06T03:34:55.241Z,98227.19
2022-09-06T03:37:39.187Z,98237.34
2022-09-06T03:40:28.262Z,98234.81
2022-09-06T03:43:17.221Z,98247.16
2022-09-06T03:46:01.599Z,98251.06
2022-09-06T03:48:51.250Z,98256.28
2022-09-06T03:51:34.934Z,98262.78
2022-09-06T03:54:26.253Z,98257.72
2022-09-06T03:57:10.636Z,98258.09
2022-09-06T04:00:00.128Z,98260.44
2022-09-06T04:02:50.764Z,98261.97
2022-09-06T04:05:41.152Z,98258.56
2022-09-06T04:08:24.515Z,98273.56
2022-09-06T04:11:21.789Z,98265.34
2022-09-06T04:14:14.305Z,98275.88
2022-09-06T04:16:58.076Z,98277.34
2022-09-06T04:19:49.306Z,98277.47
2022-09-06T04:22:45.985Z,98279.94
2022-09-06T04:25:29.089Z,98277.50
2022-09-06T04:28:23.169Z,98279.97
2022-09-06T04:31:06.624Z,98288.22
2022-09-06T04:33:58.144Z,98290.88
2022-09-06T04:36:48.439Z,98285.22
2022-09-06T04:39:39.233Z,98279.09
2022-09-06T04:42:23.241Z,98286.28
2022-09-06T04:45:13.207Z,98288.50
2022-09-06T04:48:04.314Z,98289.50
2022-09-06T04:50:47.195Z,98292.97
2022-09-06T04:53:36.920Z,98285.63
2022-09-06T04:56:42.267Z,98286.38
2022-09-06T04:59:33.617Z,98288.84
2022-09-06T05:02:17.373Z,98295.66
2022-09-06T05:05:06.163Z,98298.34
2022-09-06T05:07:51.627Z,98286.19
2022-09-06T05:10:45.076Z,98283.75
2022-09-06T05:13:27.623Z,98286.66
2022-09-06T05:16:18.162Z,98292.41
2022-09-06T05:19:00.580Z,98281.69
2022-09-06T05:21:51.055Z,98286.53
2022-09-06T05:24:51.086Z,98286.59
2022-09-06T05:27:44.204Z,98287.31
2022-09-06T05:30:26.504Z,98286.94
2022-09-06T05:33:17.217Z,98282.25
2022-09-06T05:36:00.362Z,98279.19
2022-09-06T05:38:50.225Z,98283.66
2022-09-06T05:41:42.751Z,98275.00
2022-09-06T05:44:35.233Z,98277.16
2022-09-06T05:47:24.155Z,98277.34
2022-09-06T05:50:10.456Z,98274.56
2022-09-06T05:53:19.134Z,98271.47
2022-09-06T05:56:28.160Z,98271.34
2022-09-06T05:59:40.118Z,98276.88
2022-09-06T06:02:52.098Z,98278.38
2022-09-06T06:06:08.050Z,98267.41
2022-09-06T06:09:17.521Z,98271.88
2022-09-06T06:12:29.239Z,98268.66
2022-09-06T06:15:34.582Z,98265.91
2022-09-06T06:18:51.981Z,98263.94
2022-09-06T06:22:04.962Z,98264.50
2022-09-06T06:25:21.045Z,98260.31
2022-09-06T06:28:39.708Z,98263.75
2022-09-06T06:31:58.218Z,98268.59
2022-09-06T06:35:05.061Z,98258.66
2022-09-06T06:38:16.091Z,98253.16
2022-09-06T06:41:25.184Z,98258.59
2022-09-06T06:44:38.724Z,98252.22
2022-09-06T06:47:49.092Z,98241.25
2022-09-06T06:50:56.136Z,98243.56
2022-09-06T06:54:08.124Z,98242.81
2022-09-06T06:57:11.826Z,98238.38
2022-09-06T07:00:27.646Z,98246.06
2022-09-06T07:03:39.005Z,98244.78
2022-09-06T07:10:40.448Z,98239.94
2022-09-06T07:13:51.236Z,98236.41
2022-09-06T07:17:00.325Z,98230.16
2022-09-06T07:30:33.699Z,98228.03
2022-09-06T07:33:55.157Z,98218.34
2022-09-06T07:37:04.003Z,98218.81
2022-09-06T07:40:18.113Z,98214.84
2022-09-06T07:43:37.285Z,98209.69
2022-09-06T07:46:46.375Z,98196.53
2022-09-06T07:53:29.280Z,98196.94
2022-09-06T07:56:42.464Z,98194.50
2022-09-06T07:59:51.229Z,98194.16
2022-09-06T08:02:56.158Z,98185.75
2022-09-06T08:09:27.811Z,98177.78
2022-09-06T08:12:36.227Z,98175.78
2022-09-06T08:15:46.173Z,98172.56
2022-09-06T08:18:59.208Z,98163.44
2022-09-06T08:22:11.180Z,98155.06
2022-09-06T08:25:25.191Z,98149.44
2022-09-06T08:28:41.156Z,98149.47
2022-09-06T08:32:00.122Z,98146.66
2022-09-06T08:35:03.140Z,98139.09
2022-09-06T08:38:15.182Z,98136.69
2022-09-06T08:41:27.316Z,98131.88
2022-09-06T08:48:02.849Z,98121.50
2022-09-06T08:51:15.136Z,98116.72
2022-09-06T08:54:32.343Z,98109.53
2022-09-06T08:58:00.218Z,98109.94
2022-09-06T09:01:21.869Z,98099.16
2022-09-06T09:04:40.022Z,98095.16
2022-09-06T09:08:01.259Z,98091.19
2022-09-06T09:11:15.206Z,98080.84
2022-09-06T09:14:31.692Z,98084.81
2022-09-06T09:17:34.400Z,98064.84
2022-09-06T09:20:43.249Z,98072.03
2022-09-06T09:23:55.176Z,98064.88
2022-09-06T09:27:16.392Z,98063.25
2022-09-06T09:30:48.551Z,98063.25
2022-09-06T09:34:09.034Z,98055.63
2022-09-06T09:41:10.787Z,98054.84
2022-09-06T09:44:27.151Z,98046.09
2022-09-06T09:47:36.685Z,98046.91
2022-09-06T09:50:49.155Z,98048.06
2022-09-06T09:54:11.479Z,98040.91
2022-09-06T09:57:27.790Z,98035.31
2022-09-06T10:00:55.638Z,98038.91
2022-09-06T10:04:45.695Z,98037.72
2022-09-06T10:08:04.052Z,98034.50
2022-09-06T10:11:16.710Z,98033.28
2022-09-06T10:15:04.956Z,98037.63
2022-09-06T10:18:39.342Z,98033.56
2022-09-06T10:21:50.237Z,98022.81
2022-09-06T10:25:39.211Z,98028.78
2022-09-06T10:28:56.160Z,98024.00
2022-09-06T10:32:30.395Z,98012.09
2022-09-06T10:35:40.907Z,98011.72
2022-09-06T10:39:08.892Z,98001.03
2022-09-06T10:42:43.176Z,97999.41
2022-09-06T10:45:56.050Z,97997.03
2022-09-06T10:49:09.805Z,97999.41
2022-09-06T10:52:26.270Z,98000.25
2022-09-06T10:55:38.160Z,98004.22
2022-09-06T11:06:32.780Z,97993.84
2022-09-06T11:10:13.995Z,97993.78
2022-09-06T11:13:38.572Z,98000.16
2022-09-06T11:16:55.277Z,98000.97
2022-09-06T11:20:19.854Z,98008.09
2022-09-06T11:23:38.758Z,98000.91
2022-09-06T11:27:13.522Z,97993.34
2022-09-06T11:30:31.167Z,97993.34
2022-09-06T11:33:55.064Z,97987.31
2022-09-06T11:37:11.951Z,97992.88
2022-09-06T11:40:31.259Z,97995.59
2022-09-06T11:44:00.995Z,97994.41
2022-09-06T11:47:11.229Z,97990.97
2022-09-06T11:50:33.843Z,97997.34
2022-09-06T11:54:00.942Z,98003.31
2022-09-06T11:57:36.183Z,98005.66
2022-09-06T12:00:42.887Z,98008.00
2022-09-06T12:04:06.587Z,98014.03
2022-09-06T12:07:13.944Z,98020.44
2022-09-06T12:10:44.175Z,98022.25
2022-09-06T12:13:56.045Z,98020.50
2022-09-06T12:17:28.259Z,98021.09
2022-09-06T12:20:59.273Z,98029.94
2022-09-06T12:24:03.983Z,98027.69
2022-09-06T12:27:37.626Z,98040.69
2022-09-06T12:30:54.294Z,98030.88
2022-09-06T12:34:13.554Z,98027.59
2022-09-06T12:37:33.806Z,98025.16
2022-09-06T12:40:43.201Z,98028.81
2022-09-06T12:43:54.274Z,98038.38
2022-09-06T12:47:21.140Z,98037.66
2022-09-06T12:50:39.285Z,98030.63
2022-09-06T12:53:41.177Z,98037.22
2022-09-06T12:56:50.375Z,98045.19
2022-09-06T12:59:58.092Z,98034.06
2022-09-06T13:03:17.267Z,98030.47
2022-09-06T13:06:31.014Z,98031.09
2022-09-06T13:09:35.523Z,98034.78
2022-09-06T13:12:49.146Z,98037.22
2022-09-06T13:16:01.912Z,98043.09
2022-09-06T13:19:46.290Z,98044.09
2022-09-06T13:22:56.396Z,98043.72
2022-09-06T13:26:06.310Z,98037.81
2022-09-06T13:29:31.956Z,98047.31
2022-09-06T13:32:42.268Z,98052.78
2022-09-06T13:35:46.437Z,98052.03
2022-09-06T13:39:01.276Z,98058.34
2022-09-06T13:42:13.001Z,98057.81
2022-09-06T13:45:44.308Z,98059.06
2022-09-06T13:48:48.242Z,98055.06
2022-09-06T13:51:59.977Z,98062.16
2022-09-06T13:55:09.309Z,98061.78
2022-09-06T13:58:12.862Z,98071.66
2022-09-06T14:01:22.404Z,98070.84
2022-09-06T14:04:31.518Z,98073.13
2022-09-06T14:07:41.266Z,98076.63
2022-09-06T14:10:50.259Z,98075.47
2022-09-06T14:13:55.638Z,98081.66
2022-09-06T14:17:06.176Z,98087.25
2022-09-06T14:20:19.293Z,98092.44
2022-09-06T14:23:26.056Z,98096.44
2022-09-06T14:26:40.238Z,98097.53
2022-09-06T14:29:43.572Z,98103.47
2022-09-06T14:32:53.271Z,98104.72
2022-09-06T14:35:59.953Z,98106.72
2022-09-06T14:39:11.258Z,98115.19
2022-09-06T14:42:17.329Z,98113.84
2022-09-06T14:45:28.261Z,98117.03
2022-09-06T14:48:42.137Z,98117.34
2022-09-06T14:51:45.622Z,98122.13
2022-09-06T14:54:55.295Z,98111.47
2022-09-06T14:58:01.665Z,98123.03
2022-09-06T15:01:13.031Z,98113.91
2022-09-06T15:04:17.819Z,98119.84
2022-09-06T15:07:28.506Z,98126.94
2022-09-06T15:10:32.775Z,98132.50
2022-09-06T15:13:45.187Z,98133.34
2022-09-06T15:16:55.274Z,98132.41
2022-09-06T15:20:07.197Z,98127.16
2022-09-06T15:23:26.051Z,98126.41
2022-09-06T15:26:37.192Z,98128.22
2022-09-06T15:29:41.418Z,98126.28
2022-09-06T15:33:00.106Z,98119.50
2022-09-06T15:36:10.959Z,98117.91
2022-09-06T15:39:22.194Z,98122.75
2022-09-06T15:42:31.248Z,98125.59
2022-09-06T15:45:43.283Z,98118.41
2022-09-06T15:49:01.038Z,98124.69
2022-09-06T15:52:17.259Z,98130.97
2022-09-06T15:55:41.686Z,98134.19
2022-09-06T15:58:51.284Z,98136.53
2022-09-06T16:02:05.689Z,98132.91
2022-09-06T16:05:17.454Z,98123.72
2022-09-06T16:08:25.162Z,98135.44
2022-09-06T16:11:36.244Z,98141.28
2022-09-06T16:14:39.312Z,98142.41
2022-09-06T16:17:50.256Z,98137.50
2022-09-06T16:21:05.212Z,98143.19
2022-09-06T16:24:20.298Z,98148.88
2022-09-06T16:27:27.093Z,98153.59
2022-09-06T16:30:36.978Z,98152.72
2022-09-06T16:33:47.112Z,98154.03
2022-09-06T16:36:58.163Z,98147.31
2022-09-06T16:40:16.783Z,98151.66
2022-09-06T16:43:27.091Z,98150.25
2022-09-06T16:46:13.676Z,98143.53
2022-09-06T16:49:09.241Z,98145.88
2022-09-06T16:51:56.528Z,98145.28
2022-09-06T16:54:47.992Z,98145.47
2022-09-06T16:57:33.258Z,98148.53
2022-09-06T17:00:43.619Z,98148.53
2022-09-06T17:03:28.630Z,98145.03
2022-09-06T17:06:20.244Z,98145.25
2022-09-06T17:09:04.724Z,98147.06
2022-09-06T17:11:57.249Z,98146.25
2022-09-06T17:14:42.419Z,98157.13
2022-09-06T17:17:32.253Z,98152.59
2022-09-06T17:20:28.218Z,98154.06
2022-09-06T17:23:11.153Z,98155.53
2022-09-06T17:26:01.237Z,98154.28
2022-09-06T17:28:52.255Z,98155.66
2022-09-06T17:31:44.242Z,98152.09
2022-09-06T17:34:26.637Z,98144.53
2022-09-06T17:37:17.254Z,98147.47
2022-09-06T17:39:59.612Z,98142.25
2022-09-06T17:42:58.327Z,98148.88
2022-09-06T17:45:43.838Z,98148.81
2022-09-06T17:48:33.861Z,98145.59
2022-09-06T17:51:35.020Z,98144.00
2022-09-06T17:54:18.250Z,98144.91
2022-09-06T17:57:08.254Z,98144.31
2022-09-06T17:59:50.758Z,98142.19
2022-09-06T18:02:43.211Z,98141.34
2022-09-06T18:05:27.655Z,98146.03
2022-09-06T18:08:17.247Z,98151.00
2022-09-06T18:11:07.864Z,98147.66
2022-09-06T18:14:06.979Z,98140.34
2022-09-06T18:16:58.027Z,98145.03
2022-09-06T18:19:45.385Z,98152.31
2022-09-06T18:22:35.848Z,98148.97
2022-09-06T18:25:19.779Z,98152.91
2022-09-06T18:28:09.252Z,98149.13
2022-09-06T18:31:01.027Z,98158.31
2022-09-06T18:33:45.172Z,98150.72
2022-09-06T18:36:35.286Z,98147.44
2022-09-06T18:39:21.260Z,98143.78
2022-09-06T18:42:12.614Z,98155.59
2022-09-06T18:48:03.942Z,98157.41
2022-09-06T18:50:59.839Z,98153.13
2022-09-06T18:53:50.437Z,98154.22
2022-09-06T18:56:41.900Z,98156.78
2022-09-06T18:59:31.685Z,98162.16
2022-09-06T19:02:22.121Z,98150.78
2022-09-06T19:05:20.612Z,98158.81
2022-09-06T19:08:05.150Z,98158.00
2022-09-06T19:10:47.757Z,98156.84
2022-09-06T19:13:38.894Z,98166.75
2022-09-06T19:16:25.046Z,98157.19
2022-09-06T19:19:22.299Z,98152.44
2022-09-06T19:22:09.665Z,98148.53
2022-09-06T19:24:56.763Z,98147.72
2022-09-06T19:27:39.747Z,98132.59
2022-09-06T19:30:29.272Z,98135.38
2022-09-06T19:33:14.509Z,98144.00
2022-09-06T19:36:11.569Z,98144.44
2022-09-06T19:39:03.237Z,98138.47
2022-09-06T19:41:56.313Z,98134.50
2022-09-06T19:44:46.189Z,98142.41
2022-09-06T19:47:35.237Z,98128.53
2022-09-06T19:50:25.792Z,98132.94
2022-09-06T19:53:15.497Z,98137.28
2022-09-06T19:56:01.389Z,98138.84
2022-09-06T19:58:52.266Z,98140.06
2022-09-06T20:01:43.307Z,98133.56
2022-09-06T20:04:31.232Z,98133.22
2022-09-06T20:07:20.843Z,98125.63
2022-09-06T20:10:05.148Z,98126.81
2022-09-06T20:12:55.268Z,98126.81
2022-09-06T20:15:46.239Z,98121.19
2022-09-06T20:18:35.261Z,98129.06
2022-09-06T20:21:26.176Z,98128.28
2022-09-06T20:24:15.290Z,98122.72
2022-09-06T20:27:04.865Z,98128.97
2022-09-06T20:29:48.175Z,98125.03
2022-09-06T20:32:36.584Z,98134.38
2022-09-06T20:35:20.155Z,98132.56
2022-09-06T20:38:10.513Z,98131.03
2022-09-06T20:40:53.125Z,98132.47
2022-09-06T20:43:50.147Z,98135.56
2022-09-06T20:46:44.203Z,98141.47
2022-09-06T20:49:34.674Z,98145.69
2022-09-06T20:52:24.150Z,98139.84
2022-09-06T20:55:13.225Z,98146.91
2022-09-06T20:57:55.961Z,98142.97
2022-09-06T21:00:48.098Z,98144.59
2022-09-06T21:03:30.380Z,98142.84
2022-09-06T21:06:20.052Z,98143.97
2022-09-06T21:09:09.105Z,98151.84
2022-09-06T21:12:00.173Z,98147.41
2022-09-06T21:14:43.107Z,98153.81
2022-09-06T21:17:32.191Z,98157.66
2022-09-06T21:20:20.441Z,98150.69
2022-09-06T21:23:03.175Z,98146.88
2022-09-06T21:25:53.002Z,98154.34
2022-09-06T21:28:45.057Z,98153.66
2022-09-06T21:31:37.852Z,98162.31
2022-09-06T21:34:21.069Z,98153.28
2022-09-06T21:37:10.488Z,98157.06
2022-09-06T21:39:53.203Z,98160.56
2022-09-06T21:42:41.521Z,98159.84
2022-09-06T21:45:30.357Z,98156.78
2022-09-06T21:48:13.488Z,98152.34
2022-09-06T21:51:02.111Z,98156.63
2022-09-06T21:53:45.662Z,98160.56
2022-09-06T21:56:35.128Z,98157.34
2022-09-06T21:59:18.401Z,98160.31
2022-09-06T22:02:08.023Z,98157.97
2022-09-06T22:04:54.669Z,98157.28
2022-09-06T22:07:47.031Z,98147.88
2022-09-06T22:10:31.399Z,98156.03
2022-09-06T22:13:20.030Z,98155.28
2022-09-06T22:16:07.026Z,98150.94
2022-09-06T22:18:58.021Z,98153.25
2022-09-06T22:21:42.448Z,98152.09
2022-09-06T22:24:31.016Z,98155.16
2022-09-06T22:27:14.797Z,98157.00
2022-09-06T22:30:04.012Z,98156.22
2022-09-06T22:32:46.450Z,98156.13
2022-09-06T22:35:35.129Z,98158.09
2022-09-06T22:38:17.435Z,98162.56
2022-09-06T22:41:06.876Z,98164.88
2022-09-06T22:43:55.980Z,98159.34
2022-09-06T22:46:52.185Z,98160.78
2022-09-06T22:49:40.413Z,98172.66
2022-09-06T22:52:23.163Z,98171.16
2022-09-06T22:55:05.428Z,98175.72
2022-09-06T22:57:55.097Z,98171.50
2022-09-06T23:00:37.694Z,98180.16
2022-09-06T23:03:27.227Z,98172.13
2022-09-06T23:06:16.466Z,98175.63
2022-09-06T23:08:59.115Z,98177.84
2022-09-06T23:11:47.391Z,98181.88
2022-09-06T23:14:29.992Z,98182.56
2022-09-06T23:17:21.975Z,98183.38
2022-09-06T23:20:05.120Z,98190.06
2022-09-06T23:22:54.978Z,98192.38
2022-09-06T23:25:37.406Z,98194.97
2022-09-06T23:28:26.174Z,98192.28
2022-09-06T23:31:13.485Z,98204.97
2022-09-06T23:34:04.086Z,98206.41
2022-09-06T23:36:53.004Z,98199.53
2022-09-06T23:39:43.070Z,98201.94
2022-09-06T23:42:26.380Z,98202.03
2022-09-06T23:45:22.087Z,98204.78
2022-09-06T23:48:11.489Z,98206.31
2022-09-06T23:50:54.996Z,98206.31
2022-09-06T23:53:44.082Z,98209.09
2022-09-06T23:56:26.375Z,98211.41
2022-09-06T23:59:15.109Z,98209.88
